sensor_id;sensor_type;location;lat;lon;timestamp;P1;durP1;ratioP1;P2;durP2;ratioP2
27495;SDS011;14929;51.336;9.416;2024-03-22T00:00:22;3.80;;;3.50;;
27495;SDS011;14929;51.336;9.416;2024-03-22T00:02:50;4.82;;;4.20;;
27495;SDS011;14929;51.336;9.416;2024-03-22T00:05:17;5.15;;;4.53;;
27495;SDS011;14929;51.336;9.416;2024-03-22T00:07:46;4.70;;;4.30;;
27495;SDS011;14929;51.336;9.416;2024-03-22T00:10:13;4.63;;;4.22;;
27495;SDS011;14929;51.336;9.416;2024-03-22T00:12:40;4.78;;;4.30;;
27495;SDS011;14929;51.336;9.416;2024-03-22T00:15:07;3.83;;;3.53;;
27495;SDS011;14929;51.336;9.416;2024-03-22T00:17:34;4.80;;;3.97;;
27495;SDS011;14929;51.336;9.416;2024-03-22T00:20:03;5.93;;;4.65;;
27495;SDS011;14929;51.336;9.416;2024-03-22T00:22:31;4.93;;;4.43;;
27495;SDS011;14929;51.336;9.416;2024-03-22T00:24:58;4.75;;;4.35;;
27495;SDS011;14929;51.336;9.416;2024-03-22T00:27:25;5.45;;;4.20;;
27495;SDS011;14929;51.336;9.416;2024-03-22T00:29:52;4.80;;;4.30;;
27495;SDS011;14929;51.336;9.416;2024-03-22T00:32:19;4.18;;;3.88;;
27495;SDS011;14929;51.336;9.416;2024-03-22T00:34:46;4.75;;;4.35;;
27495;SDS011;14929;51.336;9.416;2024-03-22T00:37:14;4.07;;;3.78;;
27495;SDS011;14929;51.336;9.416;2024-03-22T00:39:41;4.43;;;4.05;;
27495;SDS011;14929;51.336;9.416;2024-03-22T00:42:08;4.70;;;4.20;;
27495;SDS011;14929;51.336;9.416;2024-03-22T00:44:35;5.10;;;4.53;;
27495;SDS011;14929;51.336;9.416;2024-03-22T00:47:02;4.32;;;3.92;;
27495;SDS011;14929;51.336;9.416;2024-03-22T00:49:30;4.25;;;3.95;;
27495;SDS011;14929;51.336;9.416;2024-03-22T00:51:57;4.82;;;4.43;;
27495;SDS011;14929;51.336;9.416;2024-03-22T00:54:26;4.70;;;4.22;;
27495;SDS011;14929;51.336;9.416;2024-03-22T00:56:52;4.53;;;4.13;;
27495;SDS011;14929;51.336;9.416;2024-03-22T00:59:20;4.60;;;4.18;;
27495;SDS011;14929;51.336;9.416;2024-03-22T01:01:46;5.88;;;5.03;;
27495;SDS011;14929;51.336;9.416;2024-03-22T01:04:14;6.15;;;5.32;;
27495;SDS011;14929;51.336;9.416;2024-03-22T01:06:40;5.18;;;4.50;;
27495;SDS011;14929;51.336;9.416;2024-03-22T01:09:08;5.00;;;4.35;;
27495;SDS011;14929;51.336;9.416;2024-03-22T01:11:36;7.55;;;5.05;;
27495;SDS011;14929;51.336;9.416;2024-03-22T01:14:03;7.15;;;5.80;;
27495;SDS011;14929;51.336;9.416;2024-03-22T01:16:30;6.65;;;6.05;;
27495;SDS011;14929;51.336;9.416;2024-03-22T01:18:57;5.78;;;5.20;;
27495;SDS011;14929;51.336;9.416;2024-03-22T01:21:23;6.30;;;5.70;;
27495;SDS011;14929;51.336;9.416;2024-03-22T01:23:51;6.28;;;5.68;;
27495;SDS011;14929;51.336;9.416;2024-03-22T01:26:18;7.53;;;5.57;;
27495;SDS011;14929;51.336;9.416;2024-03-22T01:28:47;6.80;;;6.20;;
27495;SDS011;14929;51.336;9.416;2024-03-22T01:31:13;5.30;;;4.80;;
27495;SDS011;14929;51.336;9.416;2024-03-22T01:33:41;5.25;;;4.75;;
27495;SDS011;14929;51.336;9.416;2024-03-22T01:36:07;8.60;;;6.63;;
27495;SDS011;14929;51.336;9.416;2024-03-22T01:38:35;6.78;;;5.82;;
27495;SDS011;14929;51.336;9.416;2024-03-22T01:41:01;5.60;;;4.53;;
27495;SDS011;14929;51.336;9.416;2024-03-22T01:43:28;6.28;;;5.68;;
27495;SDS011;14929;51.336;9.416;2024-03-22T01:45:56;10.07;;;5.15;;
27495;SDS011;14929;51.336;9.416;2024-03-22T01:48:24;7.88;;;6.72;;
27495;SDS011;14929;51.336;9.416;2024-03-22T01:50:50;7.40;;;6.50;;
27495;SDS011;14929;51.336;9.416;2024-03-22T01:53:18;5.80;;;5.20;;
27495;SDS011;14929;51.336;9.416;2024-03-22T01:55:46;6.28;;;5.53;;
27495;SDS011;14929;51.336;9.416;2024-03-22T01:58:14;6.35;;;5.72;;
27495;SDS011;14929;51.336;9.416;2024-03-22T02:00:40;5.90;;;5.38;;
27495;SDS011;14929;51.336;9.416;2024-03-22T02:03:09;6.35;;;5.75;;
27495;SDS011;14929;51.336;9.416;2024-03-22T02:05:36;6.22;;;5.63;;
27495;SDS011;14929;51.336;9.416;2024-03-22T02:08:03;6.47;;;5.10;;
27495;SDS011;14929;51.336;9.416;2024-03-22T02:10:31;5.95;;;5.45;;
27495;SDS011;14929;51.336;9.416;2024-03-22T02:12:58;4.10;;;3.70;;
27495;SDS011;14929;51.336;9.416;2024-03-22T02:15:25;5.45;;;4.95;;
27495;SDS011;14929;51.336;9.416;2024-03-22T02:17:52;5.30;;;4.13;;
27495;SDS011;14929;51.336;9.416;2024-03-22T02:20:20;4.82;;;4.38;;
27495;SDS011;14929;51.336;9.416;2024-03-22T02:22:47;4.60;;;4.20;;
27495;SDS011;14929;51.336;9.416;2024-03-22T02:25:15;4.35;;;3.95;;
27495;SDS011;14929;51.336;9.416;2024-03-22T02:27:43;6.18;;;5.60;;
27495;SDS011;14929;51.336;9.416;2024-03-22T02:30:09;6.82;;;6.13;;
27495;SDS011;14929;51.336;9.416;2024-03-22T02:32:37;5.97;;;4.78;;
27495;SDS011;14929;51.336;9.416;2024-03-22T02:35:05;7.43;;;6.57;;
27495;SDS011;14929;51.336;9.416;2024-03-22T02:37:34;6.43;;;5.88;;
27495;SDS011;14929;51.336;9.416;2024-03-22T02:40:00;6.90;;;6.18;;
27495;SDS011;14929;51.336;9.416;2024-03-22T02:42:29;6.45;;;5.85;;
27495;SDS011;14929;51.336;9.416;2024-03-22T02:44:56;6.05;;;5.45;;
27495;SDS011;14929;51.336;9.416;2024-03-22T02:47:23;7.47;;;6.65;;
27495;SDS011;14929;51.336;9.416;2024-03-22T02:49:49;6.70;;;5.95;;
27495;SDS011;14929;51.336;9.416;2024-03-22T02:52:17;10.02;;;7.53;;
27495;SDS011;14929;51.336;9.416;2024-03-22T02:54:43;6.85;;;5.95;;
27495;SDS011;14929;51.336;9.416;2024-03-22T02:57:11;7.45;;;6.38;;
27495;SDS011;14929;51.336;9.416;2024-03-22T02:59:38;4.75;;;4.35;;
27495;SDS011;14929;51.336;9.416;2024-03-22T03:02:06;6.05;;;5.45;;
27495;SDS011;14929;51.336;9.416;2024-03-22T03:04:32;10.43;;;7.80;;
27495;SDS011;14929;51.336;9.416;2024-03-22T03:07:00;8.93;;;7.60;;
27495;SDS011;14929;51.336;9.416;2024-03-22T03:09:26;7.80;;;7.00;;
27495;SDS011;14929;51.336;9.416;2024-03-22T03:11:54;8.50;;;7.45;;
27495;SDS011;14929;51.336;9.416;2024-03-22T03:14:20;7.72;;;6.93;;
27495;SDS011;14929;51.336;9.416;2024-03-22T03:16:49;7.22;;;6.53;;
27495;SDS011;14929;51.336;9.416;2024-03-22T03:19:15;6.70;;;6.10;;
27495;SDS011;14929;51.336;9.416;2024-03-22T03:21:43;6.35;;;5.75;;
27495;SDS011;14929;51.336;9.416;2024-03-22T03:24:09;7.43;;;6.63;;
27495;SDS011;14929;51.336;9.416;2024-03-22T03:26:37;5.18;;;4.70;;
27495;SDS011;14929;51.336;9.416;2024-03-22T03:29:03;5.82;;;5.30;;
27495;SDS011;14929;51.336;9.416;2024-03-22T03:31:30;5.97;;;5.28;;
27495;SDS011;14929;51.336;9.416;2024-03-22T03:33:58;5.85;;;5.25;;
27495;SDS011;14929;51.336;9.416;2024-03-22T03:36:26;6.22;;;5.63;;
27495;SDS011;14929;51.336;9.416;2024-03-22T03:38:52;5.40;;;4.85;;
27495;SDS011;14929;51.336;9.416;2024-03-22T03:41:20;5.90;;;5.30;;
27495;SDS011;14929;51.336;9.416;2024-03-22T03:43:46;6.90;;;5.97;;
27495;SDS011;14929;51.336;9.416;2024-03-22T03:46:14;6.28;;;5.53;;
27495;SDS011;14929;51.336;9.416;2024-03-22T03:48:40;8.13;;;7.32;;
27495;SDS011;14929;51.336;9.416;2024-03-22T03:51:09;7.97;;;7.18;;
27495;SDS011;14929;51.336;9.416;2024-03-22T03:53:35;6.90;;;6.30;;
27495;SDS011;14929;51.336;9.416;2024-03-22T03:56:03;5.10;;;4.60;;
27495;SDS011;14929;51.336;9.416;2024-03-22T03:58:29;8.55;;;6.63;;
27495;SDS011;14929;51.336;9.416;2024-03-22T04:00:57;8.23;;;7.30;;
27495;SDS011;14929;51.336;9.416;2024-03-22T04:03:23;5.90;;;5.28;;
27495;SDS011;14929;51.336;9.416;2024-03-22T04:05:55;6.40;;;4.82;;
27495;SDS011;14929;51.336;9.416;2024-03-22T04:08:24;6.55;;;5.85;;
27495;SDS011;14929;51.336;9.416;2024-03-22T04:10:51;7.13;;;5.85;;
27495;SDS011;14929;51.336;9.416;2024-03-22T04:13:18;7.22;;;6.45;;
27495;SDS011;14929;51.336;9.416;2024-03-22T04:15:45;7.57;;;6.53;;
27495;SDS011;14929;51.336;9.416;2024-03-22T04:18:12;8.63;;;7.75;;
27495;SDS011;14929;51.336;9.416;2024-03-22T04:20:39;9.43;;;7.90;;
27495;SDS011;14929;51.336;9.416;2024-03-22T04:23:06;9.15;;;8.25;;
27495;SDS011;14929;51.336;9.416;2024-03-22T04:25:34;8.88;;;7.47;;
27495;SDS011;14929;51.336;9.416;2024-03-22T04:28:01;10.60;;;7.90;;
27495;SDS011;14929;51.336;9.416;2024-03-22T04:30:28;10.77;;;9.73;;
27495;SDS011;14929;51.336;9.416;2024-03-22T04:32:55;8.20;;;7.18;;
27495;SDS011;14929;51.336;9.416;2024-03-22T04:35:22;7.10;;;6.03;;
27495;SDS011;14929;51.336;9.416;2024-03-22T04:37:49;6.78;;;6.07;;
27495;SDS011;14929;51.336;9.416;2024-03-22T04:40:16;8.30;;;7.18;;
27495;SDS011;14929;51.336;9.416;2024-03-22T04:42:45;7.93;;;7.10;;
27495;SDS011;14929;51.336;9.416;2024-03-22T04:45:13;6.82;;;6.22;;
27495;SDS011;14929;51.336;9.416;2024-03-22T04:47:39;7.82;;;7.00;;
27495;SDS011;14929;51.336;9.416;2024-03-22T04:50:07;6.70;;;5.85;;
27495;SDS011;14929;51.336;9.416;2024-03-22T04:52:35;8.02;;;7.13;;
27495;SDS011;14929;51.336;9.416;2024-03-22T04:55:02;12.15;;;8.80;;
27495;SDS011;14929;51.336;9.416;2024-03-22T04:57:30;13.73;;;9.82;;
27495;SDS011;14929;51.336;9.416;2024-03-22T04:59:58;9.63;;;8.52;;
27495;SDS011;14929;51.336;9.416;2024-03-22T05:02:25;11.43;;;9.30;;
27495;SDS011;14929;51.336;9.416;2024-03-22T05:04:52;9.30;;;8.32;;
27495;SDS011;14929;51.336;9.416;2024-03-22T05:07:19;14.60;;;11.75;;
27495;SDS011;14929;51.336;9.416;2024-03-22T05:09:46;14.18;;;12.27;;
27495;SDS011;14929;51.336;9.416;2024-03-22T05:12:13;15.88;;;9.15;;
27495;SDS011;14929;51.336;9.416;2024-03-22T05:14:40;11.50;;;9.95;;
27495;SDS011;14929;51.336;9.416;2024-03-22T05:17:08;10.60;;;8.60;;
27495;SDS011;14929;51.336;9.416;2024-03-22T05:19:35;9.90;;;8.35;;
27495;SDS011;14929;51.336;9.416;2024-03-22T05:22:02;8.40;;;7.38;;
27495;SDS011;14929;51.336;9.416;2024-03-22T05:24:31;11.90;;;10.52;;
27495;SDS011;14929;51.336;9.416;2024-03-22T05:26:57;10.88;;;9.40;;
27495;SDS011;14929;51.336;9.416;2024-03-22T05:29:25;10.20;;;7.85;;
27495;SDS011;14929;51.336;9.416;2024-03-22T05:31:51;8.05;;;6.90;;
27495;SDS011;14929;51.336;9.416;2024-03-22T05:34:20;7.28;;;6.55;;
27495;SDS011;14929;51.336;9.416;2024-03-22T05:36:47;7.18;;;6.47;;
27495;SDS011;14929;51.336;9.416;2024-03-22T05:39:14;9.75;;;7.57;;
27495;SDS011;14929;51.336;9.416;2024-03-22T05:41:41;11.43;;;9.18;;
27495;SDS011;14929;51.336;9.416;2024-03-22T05:44:08;10.50;;;9.35;;
27495;SDS011;14929;51.336;9.416;2024-03-22T05:46:35;11.10;;;8.10;;
27495;SDS011;14929;51.336;9.416;2024-03-22T05:49:02;12.95;;;9.45;;
27495;SDS011;14929;51.336;9.416;2024-03-22T05:51:30;11.93;;;9.80;;
27495;SDS011;14929;51.336;9.416;2024-03-22T05:53:57;15.05;;;11.75;;
27495;SDS011;14929;51.336;9.416;2024-03-22T05:56:24;15.25;;;10.95;;
27495;SDS011;14929;51.336;9.416;2024-03-22T05:58:51;14.70;;;11.02;;
27495;SDS011;14929;51.336;9.416;2024-03-22T06:01:18;15.55;;;10.77;;
27495;SDS011;14929;51.336;9.416;2024-03-22T06:03:46;13.43;;;10.23;;
27495;SDS011;14929;51.336;9.416;2024-03-22T06:06:12;14.32;;;11.50;;
27495;SDS011;14929;51.336;9.416;2024-03-22T06:08:42;14.15;;;10.10;;
27495;SDS011;14929;51.336;9.416;2024-03-22T06:11:10;12.32;;;9.95;;
27495;SDS011;14929;51.336;9.416;2024-03-22T06:13:37;14.05;;;12.00;;
27495;SDS011;14929;51.336;9.416;2024-03-22T06:16:05;14.55;;;10.38;;
27495;SDS011;14929;51.336;9.416;2024-03-22T06:18:32;13.30;;;9.50;;
27495;SDS011;14929;51.336;9.416;2024-03-22T06:20:59;15.80;;;12.15;;
27495;SDS011;14929;51.336;9.416;2024-03-22T06:23:26;15.77;;;12.15;;
27495;SDS011;14929;51.336;9.416;2024-03-22T06:25:54;17.80;;;11.90;;
27495;SDS011;14929;51.336;9.416;2024-03-22T06:28:22;14.18;;;11.07;;
27495;SDS011;14929;51.336;9.416;2024-03-22T06:30:49;16.95;;;12.70;;
27495;SDS011;14929;51.336;9.416;2024-03-22T06:33:16;13.52;;;10.43;;
27495;SDS011;14929;51.336;9.416;2024-03-22T06:35:44;13.60;;;9.65;;
27495;SDS011;14929;51.336;9.416;2024-03-22T06:38:12;13.90;;;10.55;;
27495;SDS011;14929;51.336;9.416;2024-03-22T06:40:38;13.70;;;10.55;;
27495;SDS011;14929;51.336;9.416;2024-03-22T06:43:07;14.00;;;10.85;;
27495;SDS011;14929;51.336;9.416;2024-03-22T06:45:34;13.00;;;10.75;;
27495;SDS011;14929;51.336;9.416;2024-03-22T06:48:01;8.68;;;6.97;;
27495;SDS011;14929;51.336;9.416;2024-03-22T06:50:28;12.57;;;9.45;;
27495;SDS011;14929;51.336;9.416;2024-03-22T06:52:55;10.05;;;9.05;;
27495;SDS011;14929;51.336;9.416;2024-03-22T06:55:22;12.20;;;9.57;;
27495;SDS011;14929;51.336;9.416;2024-03-22T06:57:49;12.93;;;9.90;;
27495;SDS011;14929;51.336;9.416;2024-03-22T07:00:18;12.70;;;8.85;;
27495;SDS011;14929;51.336;9.416;2024-03-22T07:02:46;10.40;;;8.48;;
27495;SDS011;14929;51.336;9.416;2024-03-22T07:05:12;11.60;;;9.43;;
27495;SDS011;14929;51.336;9.416;2024-03-22T07:07:40;9.68;;;7.70;;
27495;SDS011;14929;51.336;9.416;2024-03-22T07:10:07;13.32;;;10.00;;
27495;SDS011;14929;51.336;9.416;2024-03-22T07:12:35;11.35;;;8.80;;
27495;SDS011;14929;51.336;9.416;2024-03-22T07:15:02;12.68;;;9.40;;
27495;SDS011;14929;51.336;9.416;2024-03-22T07:17:32;11.15;;;8.75;;
27495;SDS011;14929;51.336;9.416;2024-03-22T07:19:58;10.95;;;8.50;;
27495;SDS011;14929;51.336;9.416;2024-03-22T07:22:27;9.95;;;8.75;;
27495;SDS011;14929;51.336;9.416;2024-03-22T07:24:53;14.25;;;10.77;;
27495;SDS011;14929;51.336;9.416;2024-03-22T07:27:21;12.30;;;9.57;;
27495;SDS011;14929;51.336;9.416;2024-03-22T07:29:47;13.13;;;9.95;;
27495;SDS011;14929;51.336;9.416;2024-03-22T07:32:15;13.40;;;9.25;;
27495;SDS011;14929;51.336;9.416;2024-03-22T07:34:45;15.43;;;9.20;;
27495;SDS011;14929;51.336;9.416;2024-03-22T07:37:13;11.57;;;10.05;;
27495;SDS011;14929;51.336;9.416;2024-03-22T07:39:39;9.80;;;8.25;;
27495;SDS011;14929;51.336;9.416;2024-03-22T07:42:06;14.77;;;10.52;;
27495;SDS011;14929;51.336;9.416;2024-03-22T07:44:33;11.48;;;9.07;;
27495;SDS011;14929;51.336;9.416;2024-03-22T07:47:00;17.70;;;11.32;;
27495;SDS011;14929;51.336;9.416;2024-03-22T07:49:27;14.35;;;11.43;;
27495;SDS011;14929;51.336;9.416;2024-03-22T07:51:56;11.80;;;9.85;;
27495;SDS011;14929;51.336;9.416;2024-03-22T07:54:22;16.75;;;11.45;;
27495;SDS011;14929;51.336;9.416;2024-03-22T07:56:50;14.77;;;11.65;;
27495;SDS011;14929;51.336;9.416;2024-03-22T07:59:16;13.98;;;11.00;;
27495;SDS011;14929;51.336;9.416;2024-03-22T08:01:44;14.30;;;10.68;;
27495;SDS011;14929;51.336;9.416;2024-03-22T08:04:12;16.85;;;12.85;;
27495;SDS011;14929;51.336;9.416;2024-03-22T08:06:39;16.35;;;12.63;;
27495;SDS011;14929;51.336;9.416;2024-03-22T08:09:08;14.50;;;12.02;;
27495;SDS011;14929;51.336;9.416;2024-03-22T08:11:35;15.50;;;12.25;;
27495;SDS011;14929;51.336;9.416;2024-03-22T08:14:02;16.15;;;12.45;;
27495;SDS011;14929;51.336;9.416;2024-03-22T08:16:29;13.60;;;11.43;;
27495;SDS011;14929;51.336;9.416;2024-03-22T08:18:56;15.65;;;12.93;;
27495;SDS011;14929;51.336;9.416;2024-03-22T08:21:24;13.07;;;11.05;;
27495;SDS011;14929;51.336;9.416;2024-03-22T08:23:50;11.50;;;10.23;;
27495;SDS011;14929;51.336;9.416;2024-03-22T08:26:19;15.88;;;12.30;;
27495;SDS011;14929;51.336;9.416;2024-03-22T08:28:46;14.40;;;11.93;;
27495;SDS011;14929;51.336;9.416;2024-03-22T08:31:14;15.15;;;11.30;;
27495;SDS011;14929;51.336;9.416;2024-03-22T08:33:42;15.48;;;12.57;;
27495;SDS011;14929;51.336;9.416;2024-03-22T08:36:09;12.48;;;10.07;;
27495;SDS011;14929;51.336;9.416;2024-03-22T08:38:36;11.27;;;8.95;;
27495;SDS011;14929;51.336;9.416;2024-03-22T08:41:03;13.48;;;10.27;;
27495;SDS011;14929;51.336;9.416;2024-03-22T08:43:31;10.82;;;8.55;;
27495;SDS011;14929;51.336;9.416;2024-03-22T08:45:58;11.63;;;9.30;;
27495;SDS011;14929;51.336;9.416;2024-03-22T08:48:25;11.60;;;9.55;;
27495;SDS011;14929;51.336;9.416;2024-03-22T08:50:52;9.63;;;8.52;;
27495;SDS011;14929;51.336;9.416;2024-03-22T08:53:19;9.50;;;8.50;;
27495;SDS011;14929;51.336;9.416;2024-03-22T08:55:46;15.38;;;10.82;;
27495;SDS011;14929;51.336;9.416;2024-03-22T08:58:13;13.85;;;11.02;;
27495;SDS011;14929;51.336;9.416;2024-03-22T09:00:43;11.50;;;9.18;;
27495;SDS011;14929;51.336;9.416;2024-03-22T09:03:10;12.55;;;9.40;;
27495;SDS011;14929;51.336;9.416;2024-03-22T09:05:38;14.73;;;10.25;;
27495;SDS011;14929;51.336;9.416;2024-03-22T09:08:05;11.88;;;8.70;;
27495;SDS011;14929;51.336;9.416;2024-03-22T09:10:33;11.35;;;9.18;;
27495;SDS011;14929;51.336;9.416;2024-03-22T09:13:00;13.20;;;10.57;;
27495;SDS011;14929;51.336;9.416;2024-03-22T09:15:27;12.00;;;9.73;;
27495;SDS011;14929;51.336;9.416;2024-03-22T09:17:55;12.70;;;9.80;;
27495;SDS011;14929;51.336;9.416;2024-03-22T09:20:22;11.70;;;9.25;;
27495;SDS011;14929;51.336;9.416;2024-03-22T09:22:49;10.27;;;9.18;;
27495;SDS011;14929;51.336;9.416;2024-03-22T09:25:16;9.70;;;8.52;;
27495;SDS011;14929;51.336;9.416;2024-03-22T09:27:43;9.35;;;7.25;;
27495;SDS011;14929;51.336;9.416;2024-03-22T09:30:11;8.80;;;7.53;;
27495;SDS011;14929;51.336;9.416;2024-03-22T09:32:39;10.20;;;8.63;;
27495;SDS011;14929;51.336;9.416;2024-03-22T09:35:09;10.40;;;7.68;;
27495;SDS011;14929;51.336;9.416;2024-03-22T09:37:39;10.23;;;8.15;;
27495;SDS011;14929;51.336;9.416;2024-03-22T09:40:07;9.05;;;8.15;;
27495;SDS011;14929;51.336;9.416;2024-03-22T09:42:35;16.50;;;10.90;;
27495;SDS011;14929;51.336;9.416;2024-03-22T09:45:06;9.35;;;8.38;;
27495;SDS011;14929;51.336;9.416;2024-03-22T09:47:35;8.55;;;7.65;;
27495;SDS011;14929;51.336;9.416;2024-03-22T09:50:04;9.32;;;7.68;;
27495;SDS011;14929;51.336;9.416;2024-03-22T09:52:34;11.32;;;7.97;;
27495;SDS011;14929;51.336;9.416;2024-03-22T09:55:03;9.45;;;8.10;;
27495;SDS011;14929;51.336;9.416;2024-03-22T09:57:31;11.45;;;9.20;;
27495;SDS011;14929;51.336;9.416;2024-03-22T10:00:01;9.82;;;8.40;;
27495;SDS011;14929;51.336;9.416;2024-03-22T10:02:28;7.50;;;6.80;;
27495;SDS011;14929;51.336;9.416;2024-03-22T10:04:56;10.80;;;7.53;;
27495;SDS011;14929;51.336;9.416;2024-03-22T10:07:24;8.27;;;7.38;;
27495;SDS011;14929;51.336;9.416;2024-03-22T10:09:52;9.38;;;7.72;;
27495;SDS011;14929;51.336;9.416;2024-03-22T10:12:18;9.50;;;7.85;;
27495;SDS011;14929;51.336;9.416;2024-03-22T10:14:46;12.95;;;9.15;;
27495;SDS011;14929;51.336;9.416;2024-03-22T10:17:12;11.55;;;8.77;;
27495;SDS011;14929;51.336;9.416;2024-03-22T10:19:40;11.30;;;8.63;;
27495;SDS011;14929;51.336;9.416;2024-03-22T10:22:07;9.88;;;8.02;;
27495;SDS011;14929;51.336;9.416;2024-03-22T10:24:35;8.23;;;6.60;;
27495;SDS011;14929;51.336;9.416;2024-03-22T10:27:02;8.00;;;6.40;;
27495;SDS011;14929;51.336;9.416;2024-03-22T10:29:30;7.25;;;6.50;;
27495;SDS011;14929;51.336;9.416;2024-03-22T10:31:57;9.52;;;7.03;;
27495;SDS011;14929;51.336;9.416;2024-03-22T10:34:24;11.20;;;7.60;;
27495;SDS011;14929;51.336;9.416;2024-03-22T10:36:51;9.65;;;8.65;;
27495;SDS011;14929;51.336;9.416;2024-03-22T10:39:18;7.32;;;6.60;;
27495;SDS011;14929;51.336;9.416;2024-03-22T10:41:46;7.30;;;6.20;;
27495;SDS011;14929;51.336;9.416;2024-03-22T10:44:14;8.23;;;7.22;;
27495;SDS011;14929;51.336;9.416;2024-03-22T10:46:44;9.73;;;8.73;;
27495;SDS011;14929;51.336;9.416;2024-03-22T10:49:14;9.63;;;8.40;;
27495;SDS011;14929;51.336;9.416;2024-03-22T10:51:44;8.55;;;7.68;;
27495;SDS011;14929;51.336;9.416;2024-03-22T10:54:16;8.90;;;8.00;;
27495;SDS011;14929;51.336;9.416;2024-03-22T10:56:47;11.00;;;7.75;;
27495;SDS011;14929;51.336;9.416;2024-03-22T10:59:18;11.20;;;8.27;;
27495;SDS011;14929;51.336;9.416;2024-03-22T11:01:45;6.72;;;6.13;;
27495;SDS011;14929;51.336;9.416;2024-03-22T11:04:15;8.27;;;6.53;;
27495;SDS011;14929;51.336;9.416;2024-03-22T11:06:46;7.90;;;6.70;;
27495;SDS011;14929;51.336;9.416;2024-03-22T11:09:18;10.07;;;8.00;;
27495;SDS011;14929;51.336;9.416;2024-03-22T11:11:48;6.95;;;6.25;;
27495;SDS011;14929;51.336;9.416;2024-03-22T11:14:17;6.47;;;5.05;;
27495;SDS011;14929;51.336;9.416;2024-03-22T11:16:45;7.30;;;5.85;;
27495;SDS011;14929;51.336;9.416;2024-03-22T11:19:12;4.93;;;4.45;;
27495;SDS011;14929;51.336;9.416;2024-03-22T11:21:39;8.77;;;7.18;;
27495;SDS011;14929;51.336;9.416;2024-03-22T11:24:06;9.40;;;6.43;;
27495;SDS011;14929;51.336;9.416;2024-03-22T11:26:35;7.97;;;5.00;;
27495;SDS011;14929;51.336;9.416;2024-03-22T11:29:02;5.65;;;5.15;;
27495;SDS011;14929;51.336;9.416;2024-03-22T11:31:30;8.50;;;6.07;;
27495;SDS011;14929;51.336;9.416;2024-03-22T11:33:58;5.50;;;4.95;;
27495;SDS011;14929;51.336;9.416;2024-03-22T11:36:24;6.40;;;5.18;;
27495;SDS011;14929;51.336;9.416;2024-03-22T11:38:52;7.28;;;5.40;;
27495;SDS011;14929;51.336;9.416;2024-03-22T11:41:21;5.82;;;5.25;;
27495;SDS011;14929;51.336;9.416;2024-03-22T11:43:50;4.82;;;3.92;;
27495;SDS011;14929;51.336;9.416;2024-03-22T11:46:18;5.28;;;4.78;;
27495;SDS011;14929;51.336;9.416;2024-03-22T11:48:50;4.20;;;3.80;;
27495;SDS011;14929;51.336;9.416;2024-03-22T11:51:17;4.57;;;4.05;;
27495;SDS011;14929;51.336;9.416;2024-03-22T11:53:48;4.65;;;4.18;;
27495;SDS011;14929;51.336;9.416;2024-03-22T11:56:17;3.28;;;2.97;;
27495;SDS011;14929;51.336;9.416;2024-03-22T11:58:46;5.40;;;3.70;;
27495;SDS011;14929;51.336;9.416;2024-03-22T12:01:13;5.07;;;4.55;;
27495;SDS011;14929;51.336;9.416;2024-03-22T12:03:44;3.92;;;3.17;;
27495;SDS011;14929;51.336;9.416;2024-03-22T12:06:12;5.32;;;4.93;;
27495;SDS011;14929;51.336;9.416;2024-03-22T12:08:39;2.90;;;2.70;;
27495;SDS011;14929;51.336;9.416;2024-03-22T12:11:07;4.43;;;4.03;;
27495;SDS011;14929;51.336;9.416;2024-03-22T12:13:34;5.25;;;4.35;;
27495;SDS011;14929;51.336;9.416;2024-03-22T12:16:03;5.70;;;4.25;;
27495;SDS011;14929;51.336;9.416;2024-03-22T12:18:32;3.90;;;3.00;;
27495;SDS011;14929;51.336;9.416;2024-03-22T12:21:00;3.63;;;3.22;;
27495;SDS011;14929;51.336;9.416;2024-03-22T12:23:28;3.28;;;2.97;;
27495;SDS011;14929;51.336;9.416;2024-03-22T12:25:54;3.85;;;3.17;;
27495;SDS011;14929;51.336;9.416;2024-03-22T12:28:21;3.50;;;3.15;;
27495;SDS011;14929;51.336;9.416;2024-03-22T12:30:48;4.25;;;3.85;;
27495;SDS011;14929;51.336;9.416;2024-03-22T12:33:16;3.50;;;3.20;;
27495;SDS011;14929;51.336;9.416;2024-03-22T12:35:43;4.88;;;3.50;;
27495;SDS011;14929;51.336;9.416;2024-03-22T12:38:13;3.25;;;2.95;;
27495;SDS011;14929;51.336;9.416;2024-03-22T12:40:39;2.30;;;2.10;;
27495;SDS011;14929;51.336;9.416;2024-03-22T12:43:07;2.55;;;2.05;;
27495;SDS011;14929;51.336;9.416;2024-03-22T12:45:35;2.92;;;2.33;;
27495;SDS011;14929;51.336;9.416;2024-03-22T12:48:03;3.58;;;3.28;;
27495;SDS011;14929;51.336;9.416;2024-03-22T12:50:30;2.60;;;2.25;;
27495;SDS011;14929;51.336;9.416;2024-03-22T12:52:58;2.50;;;2.30;;
27495;SDS011;14929;51.336;9.416;2024-03-22T12:55:26;2.38;;;2.17;;
27495;SDS011;14929;51.336;9.416;2024-03-22T12:57:56;1.80;;;1.70;;
27495;SDS011;14929;51.336;9.416;2024-03-22T13:00:22;2.97;;;2.67;;
27495;SDS011;14929;51.336;9.416;2024-03-22T13:02:50;2.53;;;2.33;;
27495;SDS011;14929;51.336;9.416;2024-03-22T13:05:17;3.13;;;2.72;;
27495;SDS011;14929;51.336;9.416;2024-03-22T13:07:44;2.53;;;2.33;;
27495;SDS011;14929;51.336;9.416;2024-03-22T13:10:11;3.63;;;2.75;;
27495;SDS011;14929;51.336;9.416;2024-03-22T13:12:39;3.85;;;2.53;;
27495;SDS011;14929;51.336;9.416;2024-03-22T13:15:06;3.40;;;2.67;;
27495;SDS011;14929;51.336;9.416;2024-03-22T13:17:34;4.05;;;3.15;;
27495;SDS011;14929;51.336;9.416;2024-03-22T13:20:01;3.85;;;2.80;;
27495;SDS011;14929;51.336;9.416;2024-03-22T13:22:35;3.20;;;2.92;;
27495;SDS011;14929;51.336;9.416;2024-03-22T13:25:02;4.68;;;2.72;;
27495;SDS011;14929;51.336;9.416;2024-03-22T13:27:32;3.28;;;2.97;;
27495;SDS011;14929;51.336;9.416;2024-03-22T13:30:00;3.30;;;3.00;;
27495;SDS011;14929;51.336;9.416;2024-03-22T13:32:28;2.90;;;2.22;;
27495;SDS011;14929;51.336;9.416;2024-03-22T13:34:55;3.97;;;3.28;;
27495;SDS011;14929;51.336;9.416;2024-03-22T13:37:22;2.67;;;2.40;;
27495;SDS011;14929;51.336;9.416;2024-03-22T13:39:48;2.58;;;2.38;;
27495;SDS011;14929;51.336;9.416;2024-03-22T13:42:16;2.38;;;2.17;;
27495;SDS011;14929;51.336;9.416;2024-03-22T13:44:43;3.15;;;2.90;;
27495;SDS011;14929;51.336;9.416;2024-03-22T13:47:12;4.32;;;2.38;;
27495;SDS011;14929;51.336;9.416;2024-03-22T13:49:38;2.78;;;1.73;;
27495;SDS011;14929;51.336;9.416;2024-03-22T13:52:08;1.83;;;1.70;;
27495;SDS011;14929;51.336;9.416;2024-03-22T13:54:34;2.70;;;2.50;;
27495;SDS011;14929;51.336;9.416;2024-03-22T13:57:02;3.70;;;2.45;;
27495;SDS011;14929;51.336;9.416;2024-03-22T13:59:29;2.83;;;2.63;;
27495;SDS011;14929;51.336;9.416;2024-03-22T14:01:56;3.35;;;2.40;;
27495;SDS011;14929;51.336;9.416;2024-03-22T14:04:24;2.92;;;2.15;;
27495;SDS011;14929;51.336;9.416;2024-03-22T14:06:52;3.63;;;3.33;;
27495;SDS011;14929;51.336;9.416;2024-03-22T14:09:19;3.15;;;2.40;;
27495;SDS011;14929;51.336;9.416;2024-03-22T14:11:47;2.35;;;2.13;;
27495;SDS011;14929;51.336;9.416;2024-03-22T14:14:14;3.00;;;2.38;;
27495;SDS011;14929;51.336;9.416;2024-03-22T14:16:41;2.38;;;1.92;;
27495;SDS011;14929;51.336;9.416;2024-03-22T14:19:08;2.63;;;2.03;;
27495;SDS011;14929;51.336;9.416;2024-03-22T14:21:37;3.17;;;2.88;;
27495;SDS011;14929;51.336;9.416;2024-03-22T14:24:03;2.90;;;2.60;;
27495;SDS011;14929;51.336;9.416;2024-03-22T14:26:32;2.55;;;2.35;;
27495;SDS011;14929;51.336;9.416;2024-03-22T14:29:00;2.30;;;2.15;;
27495;SDS011;14929;51.336;9.416;2024-03-22T14:31:27;2.72;;;2.47;;
27495;SDS011;14929;51.336;9.416;2024-03-22T14:33:54;2.92;;;2.67;;
27495;SDS011;14929;51.336;9.416;2024-03-22T14:36:21;2.13;;;2.03;;
27495;SDS011;14929;51.336;9.416;2024-03-22T14:38:49;1.80;;;1.70;;
27495;SDS011;14929;51.336;9.416;2024-03-22T14:41:16;3.13;;;2.28;;